sensor_id;sensor_type;location;lat;lon;timestamp;temperature;humidity
26342;DHT22;14054;50.108;8.640;2023-03-03T00:00:59;4.40;99.90
26342;DHT22;14054;50.108;8.640;2023-03-03T00:03:25;4.40;99.90
26342;DHT22;14054;50.108;8.640;2023-03-03T00:05:53;4.40;99.90
26342;DHT22;14054;50.108;8.640;2023-03-03T00:08:19;4.40;99.90
26342;DHT22;14054;50.108;8.640;2023-03-03T00:10:45;4.40;99.90
26342;DHT22;14054;50.108;8.640;2023-03-03T00:13:12;4.40;99.90
26342;DHT22;14054;50.108;8.640;2023-03-03T00:15:38;4.40;99.90
26342;DHT22;14054;50.108;8.640;2023-03-03T00:18:05;4.40;99.90
26342;DHT22;14054;50.108;8.640;2023-03-03T00:20:37;4.20;99.90
26342;DHT22;14054;50.108;8.640;2023-03-03T00:25:37;4.20;99.90
26342;DHT22;14054;50.108;8.640;2023-03-03T00:28:07;4.20;99.90
26342;DHT22;14054;50.108;8.640;2023-03-03T00:30:39;4.20;99.90
26342;DHT22;14054;50.108;8.640;2023-03-03T00:33:10;4.20;99.90
26342;DHT22;14054;50.108;8.640;2023-03-03T00:35:39;4.20;99.90
26342;DHT22;14054;50.108;8.640;2023-03-03T00:38:13;4.10;99.90
26342;DHT22;14054;50.108;8.640;2023-03-03T00:40:41;4.20;99.90
26342;DHT22;14054;50.108;8.640;2023-03-03T00:43:14;4.10;99.90
26342;DHT22;14054;50.108;8.640;2023-03-03T00:45:42;4.00;99.90
26342;DHT22;14054;50.108;8.640;2023-03-03T00:48:21;4.00;99.90
26342;DHT22;14054;50.108;8.640;2023-03-03T00:50:47;4.00;99.90
26342;DHT22;14054;50.108;8.640;2023-03-03T00:53:17;3.90;99.90
26342;DHT22;14054;50.108;8.640;2023-03-03T00:55:43;3.90;99.90
26342;DHT22;14054;50.108;8.640;2023-03-03T00:58:09;3.90;99.90
26342;DHT22;14054;50.108;8.640;2023-03-03T01:00:35;3.90;99.90
26342;DHT22;14054;50.108;8.640;2023-03-03T01:03:02;3.90;99.90
26342;DHT22;14054;50.108;8.640;2023-03-03T01:05:28;3.90;99.90
26342;DHT22;14054;50.108;8.640;2023-03-03T01:07:53;3.80;99.90
26342;DHT22;14054;50.108;8.640;2023-03-03T01:10:19;3.80;99.90
26342;DHT22;14054;50.108;8.640;2023-03-03T01:12:44;3.80;99.90
26342;DHT22;14054;50.108;8.640;2023-03-03T01:15:10;3.80;99.90
26342;DHT22;14054;50.108;8.640;2023-03-03T01:17:36;3.70;99.90
26342;DHT22;14054;50.108;8.640;2023-03-03T01:20:04;3.70;99.90
26342;DHT22;14054;50.108;8.640;2023-03-03T01:22:30;3.70;99.90
26342;DHT22;14054;50.108;8.640;2023-03-03T01:24:55;3.70;99.90
26342;DHT22;14054;50.108;8.640;2023-03-03T01:27:21;3.70;99.90
26342;DHT22;14054;50.108;8.640;2023-03-03T01:29:46;3.70;99.90
26342;DHT22;14054;50.108;8.640;2023-03-03T01:32:12;3.70;99.90
26342;DHT22;14054;50.108;8.640;2023-03-03T01:34:37;3.70;99.90
26342;DHT22;14054;50.108;8.640;2023-03-03T01:37:02;3.60;99.90
26342;DHT22;14054;50.108;8.640;2023-03-03T01:39:28;3.60;99.90
26342;DHT22;14054;50.108;8.640;2023-03-03T01:41:53;3.80;99.90
26342;DHT22;14054;50.108;8.640;2023-03-03T01:44:19;3.60;99.90
26342;DHT22;14054;50.108;8.640;2023-03-03T01:46:51;4.20;99.90
26342;DHT22;14054;50.108;8.640;2023-03-03T01:49:19;3.70;99.90
26342;DHT22;14054;50.108;8.640;2023-03-03T01:51:53;3.50;99.90
26342;DHT22;14054;50.108;8.640;2023-03-03T01:54:21;3.80;99.90
26342;DHT22;14054;50.108;8.640;2023-03-03T01:56:48;3.70;99.90
26342;DHT22;14054;50.108;8.640;2023-03-03T01:59:18;3.50;99.90
26342;DHT22;14054;50.108;8.640;2023-03-03T02:01:44;3.50;99.90
26342;DHT22;14054;50.108;8.640;2023-03-03T02:04:11;3.50;99.90
26342;DHT22;14054;50.108;8.640;2023-03-03T02:06:37;3.40;99.90
26342;DHT22;14054;50.108;8.640;2023-03-03T02:09:11;3.40;99.90
26342;DHT22;14054;50.108;8.640;2023-03-03T02:11:39;3.40;99.90
26342;DHT22;14054;50.108;8.640;2023-03-03T02:14:07;3.40;99.90
26342;DHT22;14054;50.108;8.640;2023-03-03T02:16:32;3.40;99.90
26342;DHT22;14054;50.108;8.640;2023-03-03T02:18:58;3.40;99.90
26342;DHT22;14054;50.108;8.640;2023-03-03T02:21:23;3.40;99.90
26342;DHT22;14054;50.108;8.640;2023-03-03T02:23:54;3.40;99.90
26342;DHT22;14054;50.108;8.640;2023-03-03T02:26:24;3.40;99.90
26342;DHT22;14054;50.108;8.640;2023-03-03T02:28:50;3.40;99.90
26342;DHT22;14054;50.108;8.640;2023-03-03T02:31:17;3.40;99.90
26342;DHT22;14054;50.108;8.640;2023-03-03T02:33:44;3.40;99.90
26342;DHT22;14054;50.108;8.640;2023-03-03T02:36:13;3.30;99.90
26342;DHT22;14054;50.108;8.640;2023-03-03T02:46:16;3.30;99.90
26342;DHT22;14054;50.108;8.640;2023-03-03T02:48:42;3.30;99.90
26342;DHT22;14054;50.108;8.640;2023-03-03T02:51:07;3.20;99.90
26342;DHT22;14054;50.108;8.640;2023-03-03T02:53:32;3.20;99.90
26342;DHT22;14054;50.108;8.640;2023-03-03T02:55:58;3.20;99.90
26342;DHT22;14054;50.108;8.640;2023-03-03T02:58:23;3.20;99.90
26342;DHT22;14054;50.108;8.640;2023-03-03T03:00:49;3.20;99.90
26342;DHT22;14054;50.108;8.640;2023-03-03T03:03:14;3.20;99.90
26342;DHT22;14054;50.108;8.640;2023-03-03T03:05:40;3.10;99.90
26342;DHT22;14054;50.108;8.640;2023-03-03T03:08:05;3.10;99.90
26342;DHT22;14054;50.108;8.640;2023-03-03T03:10:30;3.10;99.90
26342;DHT22;14054;50.108;8.640;2023-03-03T03:12:56;3.10;99.90
26342;DHT22;14054;50.108;8.640;2023-03-03T03:15:21;3.00;99.90
26342;DHT22;14054;50.108;8.640;2023-03-03T03:17:47;3.00;99.90
26342;DHT22;14054;50.108;8.640;2023-03-03T03:20:12;3.00;99.90
26342;DHT22;14054;50.108;8.640;2023-03-03T03:22:38;3.00;99.90
26342;DHT22;14054;50.108;8.640;2023-03-03T03:25:03;3.00;99.90
26342;DHT22;14054;50.108;8.640;2023-03-03T03:27:29;2.90;99.90
26342;DHT22;14054;50.108;8.640;2023-03-03T03:29:54;2.90;99.90
26342;DHT22;14054;50.108;8.640;2023-03-03T03:32:19;2.90;99.90
26342;DHT22;14054;50.108;8.640;2023-03-03T03:34:45;2.90;99.90
26342;DHT22;14054;50.108;8.640;2023-03-03T03:37:10;2.80;99.90
26342;DHT22;14054;50.108;8.640;2023-03-03T03:39:36;2.80;99.90
26342;DHT22;14054;50.108;8.640;2023-03-03T03:42:01;2.80;99.90
26342;DHT22;14054;50.108;8.640;2023-03-03T03:44:27;2.80;99.90
26342;DHT22;14054;50.108;8.640;2023-03-03T03:46:52;2.80;99.90
26342;DHT22;14054;50.108;8.640;2023-03-03T03:49:18;2.70;99.90
26342;DHT22;14054;50.108;8.640;2023-03-03T03:51:43;2.70;99.90
26342;DHT22;14054;50.108;8.640;2023-03-03T03:54:09;2.70;99.90
26342;DHT22;14054;50.108;8.640;2023-03-03T03:56:34;2.70;99.90
26342;DHT22;14054;50.108;8.640;2023-03-03T03:58:59;2.70;99.90
26342;DHT22;14054;50.108;8.640;2023-03-03T04:01:25;2.70;99.90
26342;DHT22;14054;50.108;8.640;2023-03-03T04:03:50;2.70;99.90
26342;DHT22;14054;50.108;8.640;2023-03-03T04:06:16;2.60;99.90
26342;DHT22;14054;50.108;8.640;2023-03-03T04:08:41;3.00;99.90
26342;DHT22;14054;50.108;8.640;2023-03-03T04:11:07;2.80;99.90
26342;DHT22;14054;50.108;8.640;2023-03-03T04:16:02;2.60;99.90
26342;DHT22;14054;50.108;8.640;2023-03-03T04:18:27;2.50;99.90
26342;DHT22;14054;50.108;8.640;2023-03-03T04:20:53;2.50;99.90
26342;DHT22;14054;50.108;8.640;2023-03-03T04:23:19;2.50;99.90
26342;DHT22;14054;50.108;8.640;2023-03-03T04:25:45;2.50;99.90
26342;DHT22;14054;50.108;8.640;2023-03-03T04:28:10;2.40;99.90
26342;DHT22;14054;50.108;8.640;2023-03-03T04:30:36;2.40;99.90
26342;DHT22;14054;50.108;8.640;2023-03-03T04:33:01;2.30;99.90
26342;DHT22;14054;50.108;8.640;2023-03-03T04:35:26;2.40;99.90
26342;DHT22;14054;50.108;8.640;2023-03-03T04:37:52;2.40;99.90
26342;DHT22;14054;50.108;8.640;2023-03-03T04:40:18;2.30;99.90
26342;DHT22;14054;50.108;8.640;2023-03-03T04:42:43;2.20;99.90
26342;DHT22;14054;50.108;8.640;2023-03-03T04:45:09;2.30;99.90
26342;DHT22;14054;50.108;8.640;2023-03-03T04:47:35;2.20;99.90
26342;DHT22;14054;50.108;8.640;2023-03-03T04:50:00;2.20;99.90
26342;DHT22;14054;50.108;8.640;2023-03-03T04:52:25;2.10;99.90
26342;DHT22;14054;50.108;8.640;2023-03-03T04:54:51;2.10;99.90
26342;DHT22;14054;50.108;8.640;2023-03-03T04:57:16;2.00;99.90
26342;DHT22;14054;50.108;8.640;2023-03-03T04:59:42;2.20;99.90
26342;DHT22;14054;50.108;8.640;2023-03-03T05:02:07;2.10;99.90
26342;DHT22;14054;50.108;8.640;2023-03-03T05:04:33;2.00;99.90
26342;DHT22;14054;50.108;8.640;2023-03-03T05:06:58;1.90;99.90
26342;DHT22;14054;50.108;8.640;2023-03-03T05:09:24;2.10;99.90
26342;DHT22;14054;50.108;8.640;2023-03-03T05:11:49;2.30;99.90
26342;DHT22;14054;50.108;8.640;2023-03-03T05:14:15;2.20;99.90
26342;DHT22;14054;50.108;8.640;2023-03-03T05:16:40;1.80;99.90
26342;DHT22;14054;50.108;8.640;2023-03-03T05:19:08;-0.20;99.90
26342;DHT22;14054;50.108;8.640;2023-03-03T05:23:59;1.80;99.90
26342;DHT22;14054;50.108;8.640;2023-03-03T05:26:25;1.40;99.90
26342;DHT22;14054;50.108;8.640;2023-03-03T05:28:50;2.30;99.90
26342;DHT22;14054;50.108;8.640;2023-03-03T05:31:15;0.50;99.90
26342;DHT22;14054;50.108;8.640;2023-03-03T05:33:41;2.10;99.90
26342;DHT22;14054;50.108;8.640;2023-03-03T05:36:06;1.40;99.90
26342;DHT22;14054;50.108;8.640;2023-03-03T05:38:32;1.40;99.90
26342;DHT22;14054;50.108;8.640;2023-03-03T05:40:57;1.50;99.90
26342;DHT22;14054;50.108;8.640;2023-03-03T05:43:23;1.50;99.90
26342;DHT22;14054;50.108;8.640;2023-03-03T05:45:53;1.30;99.90
26342;DHT22;14054;50.108;8.640;2023-03-03T05:48:18;1.40;99.90
26342;DHT22;14054;50.108;8.640;2023-03-03T05:50:44;1.40;99.90
26342;DHT22;14054;50.108;8.640;2023-03-03T05:53:09;1.30;99.90
26342;DHT22;14054;50.108;8.640;2023-03-03T05:58:00;1.30;99.90
26342;DHT22;14054;50.108;8.640;2023-03-03T06:00:26;1.50;99.90
26342;DHT22;14054;50.108;8.640;2023-03-03T06:02:51;1.70;99.90
26342;DHT22;14054;50.108;8.640;2023-03-03T06:05:17;1.10;99.90
26342;DHT22;14054;50.108;8.640;2023-03-03T06:07:42;1.30;99.90
26342;DHT22;14054;50.108;8.640;2023-03-03T06:10:09;1.40;99.90
26342;DHT22;14054;50.108;8.640;2023-03-03T06:12:35;1.20;99.90
26342;DHT22;14054;50.108;8.640;2023-03-03T06:15:01;1.20;99.90
26342;DHT22;14054;50.108;8.640;2023-03-03T06:17:26;1.30;99.90
26342;DHT22;14054;50.108;8.640;2023-03-03T06:19:51;1.40;99.90
26342;DHT22;14054;50.108;8.640;2023-03-03T06:22:17;1.40;99.90
26342;DHT22;14054;50.108;8.640;2023-03-03T06:24:42;1.30;99.90
26342;DHT22;14054;50.108;8.640;2023-03-03T06:27:08;1.60;99.90
26342;DHT22;14054;50.108;8.640;2023-03-03T06:29:33;1.50;99.90
26342;DHT22;14054;50.108;8.640;2023-03-03T06:31:59;1.70;99.90
26342;DHT22;14054;50.108;8.640;2023-03-03T06:34:24;1.60;99.90
26342;DHT22;14054;50.108;8.640;2023-03-03T06:36:50;1.70;99.90
26342;DHT22;14054;50.108;8.640;2023-03-03T06:39:16;1.50;99.90
26342;DHT22;14054;50.108;8.640;2023-03-03T06:41:41;1.60;99.90
26342;DHT22;14054;50.108;8.640;2023-03-03T06:44:07;1.30;99.90
26342;DHT22;14054;50.108;8.640;2023-03-03T06:46:32;1.60;99.90
26342;DHT22;14054;50.108;8.640;2023-03-03T06:48:58;1.40;99.90
26342;DHT22;14054;50.108;8.640;2023-03-03T06:51:24;1.40;99.90
26342;DHT22;14054;50.108;8.640;2023-03-03T06:53:56;1.50;99.90
26342;DHT22;14054;50.108;8.640;2023-03-03T06:56:25;1.30;99.90
26342;DHT22;14054;50.108;8.640;2023-03-03T06:58:57;1.50;99.90
26342;DHT22;14054;50.108;8.640;2023-03-03T07:01:24;1.40;99.90
26342;DHT22;14054;50.108;8.640;2023-03-03T07:03:50;1.40;99.90
26342;DHT22;14054;50.108;8.640;2023-03-03T07:06:22;1.80;99.90
26342;DHT22;14054;50.108;8.640;2023-03-03T07:08:49;2.00;99.90
26342;DHT22;14054;50.108;8.640;2023-03-03T07:11:19;2.10;99.90
26342;DHT22;14054;50.108;8.640;2023-03-03T07:13:45;2.20;99.90
26342;DHT22;14054;50.108;8.640;2023-03-03T07:16:12;2.20;99.90
26342;DHT22;14054;50.108;8.640;2023-03-03T07:18:46;2.10;99.90
26342;DHT22;14054;50.108;8.640;2023-03-03T07:21:15;2.10;99.90
26342;DHT22;14054;50.108;8.640;2023-03-03T07:23:41;2.20;99.90
26342;DHT22;14054;50.108;8.640;2023-03-03T07:26:10;2.00;99.90
26342;DHT22;14054;50.108;8.640;2023-03-03T07:28:36;2.20;99.90
26342;DHT22;14054;50.108;8.640;2023-03-03T07:31:03;2.50;99.90
26342;DHT22;14054;50.108;8.640;2023-03-03T07:33:42;2.30;99.90
26342;DHT22;14054;50.108;8.640;2023-03-03T07:36:20;2.40;99.90
26342;DHT22;14054;50.108;8.640;2023-03-03T07:38:49;2.40;99.90
26342;DHT22;14054;50.108;8.640;2023-03-03T07:41:17;2.40;99.90
26342;DHT22;14054;50.108;8.640;2023-03-03T07:43:48;2.40;99.90
26342;DHT22;14054;50.108;8.640;2023-03-03T07:46:20;2.60;99.90
26342;DHT22;14054;50.108;8.640;2023-03-03T07:48:47;2.30;99.90
26342;DHT22;14054;50.108;8.640;2023-03-03T07:51:26;2.80;99.90
26342;DHT22;14054;50.108;8.640;2023-03-03T07:56:36;2.60;99.90
26342;DHT22;14054;50.108;8.640;2023-03-03T07:59:02;2.50;99.90
26342;DHT22;14054;50.108;8.640;2023-03-03T08:08:56;2.70;99.90
26342;DHT22;14054;50.108;8.640;2023-03-03T08:11:25;2.70;99.90
26342;DHT22;14054;50.108;8.640;2023-03-03T08:13:50;2.70;99.90
26342;DHT22;14054;50.108;8.640;2023-03-03T08:18:50;2.80;99.90
26342;DHT22;14054;50.108;8.640;2023-03-03T08:21:21;2.80;99.90
26342;DHT22;14054;50.108;8.640;2023-03-03T08:26:16;3.10;99.90
26342;DHT22;14054;50.108;8.640;2023-03-03T08:28:42;3.20;99.90
26342;DHT22;14054;50.108;8.640;2023-03-03T08:31:07;3.30;99.90
26342;DHT22;14054;50.108;8.640;2023-03-03T08:33:33;3.20;99.90
26342;DHT22;14054;50.108;8.640;2023-03-03T08:35:58;3.30;99.90
26342;DHT22;14054;50.108;8.640;2023-03-03T08:38:24;3.40;99.90
26342;DHT22;14054;50.108;8.640;2023-03-03T08:40:49;3.30;99.90
26342;DHT22;14054;50.108;8.640;2023-03-03T08:43:15;3.10;99.90
26342;DHT22;14054;50.108;8.640;2023-03-03T08:45:45;3.10;99.90
26342;DHT22;14054;50.108;8.640;2023-03-03T08:48:11;3.50;99.90
26342;DHT22;14054;50.108;8.640;2023-03-03T08:50:37;3.80;99.90
26342;DHT22;14054;50.108;8.640;2023-03-03T08:53:05;3.90;99.90
26342;DHT22;14054;50.108;8.640;2023-03-03T08:55:30;3.80;99.90
26342;DHT22;14054;50.108;8.640;2023-03-03T08:57:56;3.70;99.90
26342;DHT22;14054;50.108;8.640;2023-03-03T09:00:22;3.70;99.90
26342;DHT22;14054;50.108;8.640;2023-03-03T09:02:48;3.50;99.90
26342;DHT22;14054;50.108;8.640;2023-03-03T09:05:14;3.40;99.90
26342;DHT22;14054;50.108;8.640;2023-03-03T09:07:41;3.40;99.90
26342;DHT22;14054;50.108;8.640;2023-03-03T09:10:08;3.60;99.90
26342;DHT22;14054;50.108;8.640;2023-03-03T09:12:37;3.70;99.90
26342;DHT22;14054;50.108;8.640;2023-03-03T09:15:11;3.70;99.90
26342;DHT22;14054;50.108;8.640;2023-03-03T09:17:39;3.50;99.90
26342;DHT22;14054;50.108;8.640;2023-03-03T09:20:26;3.60;99.90
26342;DHT22;14054;50.108;8.640;2023-03-03T09:22:52;3.50;99.90
26342;DHT22;14054;50.108;8.640;2023-03-03T09:25:22;3.80;99.90
26342;DHT22;14054;50.108;8.640;2023-03-03T09:27:52;4.40;99.90
26342;DHT22;14054;50.108;8.640;2023-03-03T09:32:58;4.60;99.90
26342;DHT22;14054;50.108;8.640;2023-03-03T09:35:34;4.70;99.90
26342;DHT22;14054;50.108;8.640;2023-03-03T09:38:01;4.90;99.90
26342;DHT22;14054;50.108;8.640;2023-03-03T09:43:08;5.40;99.90
26342;DHT22;14054;50.108;8.640;2023-03-03T09:52:57;5.80;99.90
26342;DHT22;14054;50.108;8.640;2023-03-03T09:58:05;6.30;99.90
26342;DHT22;14054;50.108;8.640;2023-03-03T10:00:42;6.70;99.90
26342;DHT22;14054;50.108;8.640;2023-03-03T10:06:03;6.80;99.90
26342;DHT22;14054;50.108;8.640;2023-03-03T10:08:48;6.60;99.90
26342;DHT22;14054;50.108;8.640;2023-03-03T10:11:17;6.50;99.90
26342;DHT22;14054;50.108;8.640;2023-03-03T10:19:06;6.00;99.90
26342;DHT22;14054;50.108;8.640;2023-03-03T10:21:38;6.60;99.90
26342;DHT22;14054;50.108;8.640;2023-03-03T10:24:26;6.70;99.90
26342;DHT22;14054;50.108;8.640;2023-03-03T10:29:33;6.30;99.90
26342;DHT22;14054;50.108;8.640;2023-03-03T10:32:11;6.50;99.90
26342;DHT22;14054;50.108;8.640;2023-03-03T10:37:27;6.50;99.90
26342;DHT22;14054;50.108;8.640;2023-03-03T10:40:14;6.70;99.90
26342;DHT22;14054;50.108;8.640;2023-03-03T10:42:45;7.00;99.90
26342;DHT22;14054;50.108;8.640;2023-03-03T10:47:58;7.40;99.90
26342;DHT22;14054;50.108;8.640;2023-03-03T10:50:26;7.20;99.90
26342;DHT22;14054;50.108;8.640;2023-03-03T10:55:47;7.60;99.90
26342;DHT22;14054;50.108;8.640;2023-03-03T10:58:25;7.90;99.90
26342;DHT22;14054;50.108;8.640;2023-03-03T11:03:28;8.50;99.90
26342;DHT22;14054;50.108;8.640;2023-03-03T11:11:27;9.00;99.90
26342;DHT22;14054;50.108;8.640;2023-03-03T11:18:50;9.70;99.90
26342;DHT22;14054;50.108;8.640;2023-03-03T11:21:22;10.90;99.90
26342;DHT22;14054;50.108;8.640;2023-03-03T11:33:54;16.40;81.60
26342;DHT22;14054;50.108;8.640;2023-03-03T11:36:30;17.30;73.60
26342;DHT22;14054;50.108;8.640;2023-03-03T11:38:57;18.40;67.80
26342;DHT22;14054;50.108;8.640;2023-03-03T11:44:13;17.70;61.80
26342;DHT22;14054;50.108;8.640;2023-03-03T11:46:43;18.60;61.50
26342;DHT22;14054;50.108;8.640;2023-03-03T11:49:15;18.90;58.70
26342;DHT22;14054;50.108;8.640;2023-03-03T11:54:08;18.80;55.50
26342;DHT22;14054;50.108;8.640;2023-03-03T11:56:40;19.40;55.40
26342;DHT22;14054;50.108;8.640;2023-03-03T12:04:50;19.20;53.80
26342;DHT22;14054;50.108;8.640;2023-03-03T12:07:23;19.30;52.10
26342;DHT22;14054;50.108;8.640;2023-03-03T12:09:54;18.70;52.80
26342;DHT22;14054;50.108;8.640;2023-03-03T12:12:22;18.90;52.10
26342;DHT22;14054;50.108;8.640;2023-03-03T12:17:37;19.30;51.00
26342;DHT22;14054;50.108;8.640;2023-03-03T12:22:34;18.90;49.80
26342;DHT22;14054;50.108;8.640;2023-03-03T12:26:04;17.80;51.20
26342;DHT22;14054;50.108;8.640;2023-03-03T12:28:08;17.80;53.40
26342;DHT22;14054;50.108;8.640;2023-03-03T12:30:49;19.60;49.50
26342;DHT22;14054;50.108;8.640;2023-03-03T12:33:22;19.70;48.30
26342;DHT22;14054;50.108;8.640;2023-03-03T12:36:14;19.20;50.70
26342;DHT22;14054;50.108;8.640;2023-03-03T12:41:12;19.30;49.50
26342;DHT22;14054;50.108;8.640;2023-03-03T12:43:52;19.50;49.40
26342;DHT22;14054;50.108;8.640;2023-03-03T12:49:00;20.30;46.00
26342;DHT22;14054;50.108;8.640;2023-03-03T12:51:30;20.40;46.80
26342;DHT22;14054;50.108;8.640;2023-03-03T12:56:47;20.90;46.30
26342;DHT22;14054;50.108;8.640;2023-03-03T12:59:24;20.40;45.40
26342;DHT22;14054;50.108;8.640;2023-03-03T13:04:40;19.80;47.40
26342;DHT22;14054;50.108;8.640;2023-03-03T13:07:18;21.00;46.00
26342;DHT22;14054;50.108;8.640;2023-03-03T13:09:58;19.50;45.20
26342;DHT22;14054;50.108;8.640;2023-03-03T13:12:27;18.10;46.10
26342;DHT22;14054;50.108;8.640;2023-03-03T13:20:20;18.70;49.20
26342;DHT22;14054;50.108;8.640;2023-03-03T13:23:30;18.50;49.20
26342;DHT22;14054;50.108;8.640;2023-03-03T13:25:52;18.50;49.30
26342;DHT22;14054;50.108;8.640;2023-03-03T13:28:21;19.10;49.10
26342;DHT22;14054;50.108;8.640;2023-03-03T13:30:49;18.80;49.00
26342;DHT22;14054;50.108;8.640;2023-03-03T13:33:26;18.00;49.60
26342;DHT22;14054;50.108;8.640;2023-03-03T13:35:56;18.80;50.00
26342;DHT22;14054;50.108;8.640;2023-03-03T13:38:29;19.00;49.10
26342;DHT22;14054;50.108;8.640;2023-03-03T13:40:58;17.80;48.70
26342;DHT22;14054;50.108;8.640;2023-03-03T13:53:46;20.20;46.20
26342;DHT22;14054;50.108;8.640;2023-03-03T13:56:20;20.90;45.40
26342;DHT22;14054;50.108;8.640;2023-03-03T13:59:00;19.60;45.70
26342;DHT22;14054;50.108;8.640;2023-03-03T14:06:23;20.30;46.50
26342;DHT22;14054;50.108;8.640;2023-03-03T14:09:05;19.80;45.00
26342;DHT22;14054;50.108;8.640;2023-03-03T14:16:51;18.10;47.20
26342;DHT22;14054;50.108;8.640;2023-03-03T14:27:28;14.90;56.30
26342;DHT22;14054;50.108;8.640;2023-03-03T14:29:57;12.80;61.00
26342;DHT22;14054;50.108;8.640;2023-03-03T14:32:24;11.80;64.90
26342;DHT22;14054;50.108;8.640;2023-03-03T14:34:57;11.40;70.20
26342;DHT22;14054;50.108;8.640;2023-03-03T14:42:29;10.20;94.40
26342;DHT22;14054;50.108;8.640;2023-03-03T14:44:55;10.70;93.00
26342;DHT22;14054;50.108;8.640;2023-03-03T14:47:24;10.50;93.20
26342;DHT22;14054;50.108;8.640;2023-03-03T14:49:51;10.20;93.40
26342;DHT22;14054;50.108;8.640;2023-03-03T14:52:20;10.40;98.90
26342;DHT22;14054;50.108;8.640;2023-03-03T14:54:52;9.90;88.90
26342;DHT22;14054;50.108;8.640;2023-03-03T14:57:19;9.60;91.00
26342;DHT22;14054;50.108;8.640;2023-03-03T15:00:03;9.50;99.90
26342;DHT22;14054;50.108;8.640;2023-03-03T15:19:45;9.10;98.60
26342;DHT22;14054;50.108;8.640;2023-03-03T15:22:15;9.10;98.90
26342;DHT22;14054;50.108;8.640;2023-03-03T15:24:44;9.00;99.80
26342;DHT22;14054;50.108;8.640;2023-03-03T15:27:20;8.70;99.90
26342;DHT22;14054;50.108;8.640;2023-03-03T15:30:01;8.50;99.90
26342;DHT22;14054;50.108;8.640;2023-03-03T15:32:33;8.30;99.90
26342;DHT22;14054;50.108;8.640;2023-03-03T15:37:35;8.40;99.90
26342;DHT22;14054;50.108;8.640;2023-03-03T15:42:48;8.20;99.90
26342;DHT22;14054;50.108;8.640;2023-03-03T15:45:20;8.10;99.90
26342;DHT22;14054;50.108;8.640;2023-03-03T15:48:00;8.10;99.90
26342;DHT22;14054;50.108;8.640;2023-03-03T15:50:35;8.00;99.90
26342;DHT22;14054;50.108;8.640;2023-03-03T15:53:26;7.90;99.90
26342;DHT22;14054;50.108;8.640;2023-03-03T15:58:28;7.70;99.90
26342;DHT22;14054;50.108;8.640;2023-03-03T16:03:26;7.40;99.90
26342;DHT22;14054;50.108;8.640;2023-03-03T16:06:00;7.30;99.90
26342;DHT22;14054;50.108;8.640;2023-03-03T16:10:55;7.30;99.90
26342;DHT22;14054;50.108;8.640;2023-03-03T16:14:09;7.30;99.90
26342;DHT22;14054;50.108;8.640;2023-03-03T16:23:59;7.10;99.90
26342;DHT22;14054;50.108;8.640;2023-03-03T16:26:38;7.20;99.90
26342;DHT22;14054;50.108;8.640;2023-03-03T16:31:33;7.10;99.90
26342;DHT22;14054;50.108;8.640;2023-03-03T16:34:06;7.00;99.90
26342;DHT22;14054;50.108;8.640;2023-03-03T16:36:39;7.00;99.90
26342;DHT22;14054;50.108;8.640;2023-03-03T16:39:12;6.90;99.90
26342;DHT22;14054;50.108;8.640;2023-03-03T16:41:50;6.80;99.90
26342;DHT22;14054;50.108;8.640;2023-03-03T16:46:52;6.70;99.90
26342;DHT22;14054;50.108;8.640;2023-03-03T16:49:23;6.80;99.90
26342;DHT22;14054;50.108;8.640;2023-03-03T16:54:32;6.40;99.90
26342;DHT22;14054;50.108;8.640;2023-03-03T17:04:57;6.50;99.90
26342;DHT22;14054;50.108;8.640;2023-03-03T17:07:43;6.40;99.90
26342;DHT22;14054;50.108;8.640;2023-03-03T17:10:23;6.40;99.90
26342;DHT22;14054;50.108;8.640;2023-03-03T17:20:42;6.20;99.90
26342;DHT22;14054;50.108;8.640;2023-03-03T17:25:46;6.20;99.90
26342;DHT22;14054;50.108;8.640;2023-03-03T17:30:57;6.00;99.90
26342;DHT22;14054;50.108;8.640;2023-03-03T17:35:56;5.90;99.90
26342;DHT22;14054;50.108;8.640;2023-03-03T17:43:36;5.70;99.90
26342;DHT22;14054;50.108;8.640;2023-03-03T17:46:07;5.80;99.90
26342;DHT22;14054;50.108;8.640;2023-03-03T17:48:51;5.70;99.90
26342;DHT22;14054;50.108;8.640;2023-03-03T18:01:36;5.90;99.90
26342;DHT22;14054;50.108;8.640;2023-03-03T18:07:01;5.50;99.90
26342;DHT22;14054;50.108;8.640;2023-03-03T18:12:17;5.40;99.90
26342;DHT22;14054;50.108;8.640;2023-03-03T18:14:53;5.40;99.90
26342;DHT22;14054;50.108;8.640;2023-03-03T18:17:35;5.30;99.90
26342;DHT22;14054;50.108;8.640;2023-03-03T18:22:33;5.20;99.90
26342;DHT22;14054;50.108;8.640;2023-03-03T18:25:13;5.20;99.90
26342;DHT22;14054;50.108;8.640;2023-03-03T18:27:42;5.10;99.90
26342;DHT22;14054;50.108;8.640;2023-03-03T18:30:19;5.30;99.90
26342;DHT22;14054;50.108;8.640;2023-03-03T18:35:23;5.10;99.90
26342;DHT22;14054;50.108;8.640;2023-03-03T18:37:50;5.10;99.90
26342;DHT22;14054;50.108;8.640;2023-03-03T18:40:25;5.00;99.90
26342;DHT22;14054;50.108;8.640;2023-03-03T18:42:52;5.00;99.90
26342;DHT22;14054;50.108;8.640;2023-03-03T18:48:02;4.90;99.90
26342;DHT22;14054;50.108;8.640;2023-03-03T18:50:33;4.90;99.90
26342;DHT22;14054;50.108;8.640;2023-03-03T18:53:13;4.80;99.90
26342;DHT22;14054;50.108;8.640;2023-03-03T18:55:40;4.80;99.90
26342;DHT22;14054;50.108;8.640;2023-03-03T19:34:44;4.70;99.90
26342;DHT22;14054;50.108;8.640;2023-03-03T19:42:42;4.30;99.90
26342;DHT22;14054;50.108;8.640;2023-03-03T19:45:22;4.30;99.90
26342;DHT22;14054;50.108;8.640;2023-03-03T19:47:58;4.20;99.90
26342;DHT22;14054;50.108;8.640;2023-03-03T19:50:33;4.10;99.90
26342;DHT22;14054;50.108;8.640;2023-03-03T19:58:25;4.00;99.90
26342;DHT22;14054;50.108;8.640;2023-03-03T20:00:59;3.90;99.90
26342;DHT22;14054;50.108;8.640;2023-03-03T20:09:04;3.80;99.90
26342;DHT22;14054;50.108;8.640;2023-03-03T20:14:16;3.70;99.90
26342;DHT22;14054;50.108;8.640;2023-03-03T20:16:44;3.70;99.90
26342;DHT22;14054;50.108;8.640;2023-03-03T20:21:50;3.60;99.90
26342;DHT22;14054;50.108;8.640;2023-03-03T20:27:05;3.50;99.90
26342;DHT22;14054;50.108;8.640;2023-03-03T20:32:41;3.40;99.90
26342;DHT22;14054;50.108;8.640;2023-03-03T20:40:50;3.40;99.90
26342;DHT22;14054;50.108;8.640;2023-03-03T20:43:29;3.30;99.90
26342;DHT22;14054;50.108;8.640;2023-03-03T20:51:10;3.20;99.90
26342;DHT22;14054;50.108;8.640;2023-03-03T20:53:43;3.20;99.90
26342;DHT22;14054;50.108;8.640;2023-03-03T20:58:43;3.10;99.90
26342;DHT22;14054;50.108;8.640;2023-03-03T21:01:16;3.10;99.90
26342;DHT22;14054;50.108;8.640;2023-03-03T21:03:45;3.10;99.90
26342;DHT22;14054;50.108;8.640;2023-03-03T21:06:17;3.00;99.90
26342;DHT22;14054;50.108;8.640;2023-03-03T21:08:45;3.00;99.90
26342;DHT22;14054;50.108;8.640;2023-03-03T21:11:14;3.00;99.90
26342;DHT22;14054;50.108;8.640;2023-03-03T21:13:44;3.00;99.90
26342;DHT22;14054;50.108;8.640;2023-03-03T21:16:16;3.00;99.90
26342;DHT22;14054;50.108;8.640;2023-03-03T21:18:58;2.90;99.90
26342;DHT22;14054;50.108;8.640;2023-03-03T21:21:32;2.90;99.90
26342;DHT22;14054;50.108;8.640;2023-03-03T21:23:58;2.90;99.90
26342;DHT22;14054;50.108;8.640;2023-03-03T21:29:36;2.90;99.90
26342;DHT22;14054;50.108;8.640;2023-03-03T21:32:02;2.90;99.90